Terminal Aerodrome Forecast
Issued by NWS

Current Version | Previous Version | Graphics & Text | Print | Product List | Glossary On
Versions: 1 2 3 4 5 6 7 8 9 10 11 12 13 14 15 16 17 18
000
FTUS41 KPBZ 270145 AAA
TAFMGW
TAF AMD
KMGW 270145Z 2702/2724 18005KT P6SM -RA BKN080
      TEMPO 2702/2705 VRB15G35KT 3SM -TSRA BKN035CB
     FM271000 20003KT 5SM -RA BR BKN025
     FM271600 21008KT P6SM BKN050=

USA.gov is the U.S. government's official web portal to all federal, state and local government web resources and services.